createdAt,value
2019-05-25T00:00:13.861Z,32.65
2019-05-25T00:02:51.466Z,32.73
2019-05-25T00:05:28.905Z,35.75
2019-05-25T00:08:07.077Z,39.15
2019-05-25T00:10:44.489Z,37.65
2019-05-25T00:13:22.410Z,35.85
2019-05-25T00:15:59.494Z,31.52
2019-05-25T00:18:38.067Z,36.88
2019-05-25T00:21:15.581Z,33.98
2019-05-25T00:23:53.240Z,33.35
2019-05-25T00:26:31.901Z,31.70
2019-05-25T00:29:09.949Z,30.70
2019-05-25T00:31:47.329Z,28.42
2019-05-25T00:34:24.973Z,30.55
2019-05-25T00:37:02.639Z,34.08
2019-05-25T00:39:40.872Z,28.27
2019-05-25T00:42:18.537Z,29.52
2019-05-25T00:44:55.916Z,28.05
2019-05-25T00:47:33.525Z,25.20
2019-05-25T00:50:12.325Z,32.65
2019-05-25T00:52:49.715Z,29.45
2019-05-25T00:55:27.559Z,27.42
2019-05-25T00:58:05.700Z,23.05
2019-05-25T01:00:43.470Z,22.30
2019-05-25T01:03:20.911Z,24.25
2019-05-25T01:05:58.624Z,22.13
2019-05-25T01:08:36.588Z,21.80
2019-05-25T01:11:14.494Z,28.15
2019-05-25T01:13:51.681Z,20.17
2019-05-25T01:16:29.330Z,26.82
2019-05-25T01:19:08.293Z,24.90
2019-05-25T01:21:46.428Z,21.15
2019-05-25T01:24:23.869Z,20.62
2019-05-25T01:27:02.078Z,27.58
2019-05-25T01:29:40.843Z,23.20
2019-05-25T01:32:19.396Z,22.52
2019-05-25T01:34:57.016Z,25.20
2019-05-25T01:37:34.624Z,19.10
2019-05-25T01:40:12.346Z,21.27
2019-05-25T01:42:51.808Z,20.23
2019-05-25T01:45:29.307Z,20.88
2019-05-25T01:48:07.040Z,23.90
2019-05-25T01:50:44.094Z,26.30
2019-05-25T01:53:23.243Z,25.57
2019-05-25T01:56:00.608Z,23.62
2019-05-25T01:58:38.636Z,22.27
2019-05-25T02:01:18.216Z,28.60
2019-05-25T02:03:56.388Z,25.70
2019-05-25T02:06:33.772Z,24.75
2019-05-25T02:09:12.374Z,25.32
2019-05-25T02:11:50.303Z,26.05
2019-05-25T02:14:28.673Z,26.97
2019-05-25T02:17:06.132Z,23.87
2019-05-25T02:19:44.277Z,21.60
2019-05-25T02:22:21.479Z,27.55
2019-05-25T02:25:14.473Z,19.12
2019-05-25T02:27:39.475Z,23.05
2019-05-25T02:30:17.370Z,25.80
2019-05-25T02:32:56.220Z,25.65
2019-05-25T02:35:34.074Z,21.33
2019-05-25T02:38:11.331Z,22.70
2019-05-25T02:40:48.988Z,24.92
2019-05-25T02:43:27.080Z,24.87
2019-05-25T02:46:04.945Z,30.80
2019-05-25T02:48:42.489Z,34.03
2019-05-25T02:51:20.104Z,25.02
2019-05-25T02:53:58.457Z,22.82
2019-05-25T02:56:36.920Z,26.73
2019-05-25T02:59:14.141Z,24.25
2019-05-25T03:01:51.733Z,25.23
2019-05-25T03:04:29.673Z,27.82
2019-05-25T03:07:07.917Z,25.80
2019-05-25T03:09:45.354Z,23.45
2019-05-25T03:12:22.829Z,28.87
2019-05-25T03:14:59.769Z,20.55
2019-05-25T03:17:37.911Z,23.02
2019-05-25T03:20:15.669Z,23.07
2019-05-25T03:22:53.855Z,21.30
2019-05-25T03:25:31.356Z,22.50
2019-05-25T03:28:09.471Z,20.88
2019-05-25T03:30:47.018Z,27.73
2019-05-25T03:33:24.565Z,26.45
2019-05-25T03:36:02.557Z,28.45
2019-05-25T03:38:41.004Z,28.40
2019-05-25T03:41:18.176Z,28.57
2019-05-25T03:43:56.188Z,32.17
2019-05-25T03:46:33.293Z,29.80
2019-05-25T03:49:11.459Z,30.68
2019-05-25T03:51:48.623Z,29.42
2019-05-25T03:54:26.164Z,26.33
2019-05-25T03:57:03.410Z,26.65
2019-05-25T03:59:41.748Z,25.52
2019-05-25T04:02:18.795Z,27.90
2019-05-25T04:04:56.162Z,25.65
2019-05-25T04:07:34.751Z,26.73
2019-05-25T04:10:12.869Z,29.85
2019-05-25T04:12:50.331Z,22.30
2019-05-25T04:15:28.117Z,28.38
2019-05-25T04:18:05.660Z,23.02
2019-05-25T04:20:43.316Z,25.15
2019-05-25T04:23:20.790Z,27.42
2019-05-25T04:25:58.775Z,23.32
2019-05-25T04:28:37.391Z,25.17
2019-05-25T04:31:16.426Z,21.45
2019-05-25T04:33:53.696Z,28.30
2019-05-25T04:36:30.889Z,28.75
2019-05-25T04:39:10.531Z,29.87
2019-05-25T04:41:48.558Z,24.55
2019-05-25T04:44:25.990Z,29.45
2019-05-25T04:47:03.283Z,21.75
2019-05-25T04:49:40.845Z,22.77
2019-05-25T04:52:18.972Z,26.60
2019-05-25T04:54:56.266Z,22.42
2019-05-25T04:57:33.651Z,28.00
2019-05-25T05:00:11.099Z,26.93
2019-05-25T05:02:49.342Z,26.45
2019-05-25T05:05:27.270Z,21.70
2019-05-25T05:08:04.900Z,31.68
2019-05-25T05:10:43.202Z,24.05
2019-05-25T05:13:21.121Z,27.17
2019-05-25T05:15:58.144Z,30.05
2019-05-25T05:18:36.022Z,30.68
2019-05-25T05:21:18.879Z,22.70
2019-05-25T05:23:57.197Z,26.00
2019-05-25T05:26:34.394Z,25.77
2019-05-25T05:29:11.853Z,28.02
2019-05-25T05:31:48.927Z,23.98
2019-05-25T05:34:27.226Z,24.43
2019-05-25T05:37:05.482Z,26.50
2019-05-25T05:39:45.321Z,27.93
2019-05-25T05:42:24.761Z,33.60
2019-05-25T05:45:04.629Z,25.92
2019-05-25T05:47:42.651Z,25.70
2019-05-25T05:50:20.956Z,25.60
2019-05-25T05:52:58.564Z,26.82
2019-05-25T05:55:37.622Z,34.92
2019-05-25T05:58:15.208Z,26.55
2019-05-25T06:00:54.580Z,37.08
2019-05-25T06:03:31.803Z,26.20
2019-05-25T06:06:10.025Z,34.65
2019-05-25T06:08:47.860Z,29.20
2019-05-25T06:11:25.395Z,28.87
2019-05-25T06:14:03.821Z,30.00
2019-05-25T06:16:41.970Z,28.40
2019-05-25T06:19:19.646Z,34.48
2019-05-25T06:21:57.247Z,28.73
2019-05-25T06:24:34.604Z,27.98
2019-05-25T06:27:26.445Z,34.90
2019-05-25T06:29:51.374Z,27.75
2019-05-25T06:32:29.186Z,21.73
2019-05-25T06:35:06.930Z,34.38
2019-05-25T06:37:44.788Z,25.43
2019-05-25T06:40:23.458Z,23.65
2019-05-25T06:43:01.099Z,23.60
2019-05-25T06:45:40.564Z,31.93
2019-05-25T06:48:19.018Z,36.00
2019-05-25T06:50:56.231Z,35.65
2019-05-25T06:53:34.046Z,38.98
2019-05-25T06:56:11.525Z,45.58
2019-05-25T06:58:50.862Z,24.30
2019-05-25T07:01:28.467Z,29.57
2019-05-25T07:04:07.408Z,45.15
2019-05-25T07:06:45.501Z,41.02
2019-05-25T07:09:24.260Z,42.10
2019-05-25T07:12:01.887Z,27.13
2019-05-25T07:14:39.218Z,36.85
2019-05-25T07:17:18.190Z,29.80
2019-05-25T07:19:56.093Z,32.05
2019-05-25T07:22:34.114Z,35.17
2019-05-25T07:25:11.661Z,32.78
2019-05-25T07:27:58.890Z,35.40
2019-05-25T07:30:28.927Z,25.35
2019-05-25T07:33:06.665Z,27.05
2019-05-25T07:35:44.548Z,30.37
2019-05-25T07:38:23.099Z,43.60
2019-05-25T07:41:01.935Z,35.28
2019-05-25T07:43:39.245Z,21.25
2019-05-25T07:46:17.449Z,28.90
2019-05-25T07:48:55.849Z,38.00
2019-05-25T07:51:34.484Z,28.87
2019-05-25T07:54:13.051Z,27.15
2019-05-25T07:56:51.036Z,44.73
2019-05-25T07:59:28.666Z,39.65
2019-05-25T08:02:06.602Z,27.10
2019-05-25T08:04:43.918Z,59.88
2019-05-25T08:07:21.924Z,34.55
2019-05-25T08:09:59.639Z,39.00
2019-05-25T08:12:37.985Z,32.17
2019-05-25T08:15:15.482Z,51.53
2019-05-25T08:17:53.171Z,27.35
2019-05-25T08:20:31.689Z,32.48
2019-05-25T08:23:10.139Z,37.53
2019-05-25T08:25:47.579Z,21.17
2019-05-25T08:28:32.842Z,40.88
2019-05-25T08:31:04.331Z,53.98
2019-05-25T08:33:42.319Z,26.57
2019-05-25T08:36:19.357Z,33.18
2019-05-25T08:38:57.125Z,46.10
2019-05-25T08:41:34.742Z,32.23
2019-05-25T08:44:12.056Z,20.43
2019-05-25T08:46:49.726Z,35.60
2019-05-25T08:49:27.203Z,25.75
2019-05-25T08:52:05.197Z,31.48
2019-05-25T08:54:42.701Z,26.48
2019-05-25T08:57:20.199Z,24.43
2019-05-25T08:59:57.962Z,29.48
2019-05-25T09:02:35.362Z,33.13
2019-05-25T09:05:13.277Z,35.90
2019-05-25T09:07:50.192Z,24.23
2019-05-25T09:10:27.484Z,23.38
2019-05-25T09:13:04.789Z,34.15
2019-05-25T09:15:42.817Z,37.17
2019-05-25T09:18:20.110Z,23.45
2019-05-25T09:20:57.514Z,21.50
2019-05-25T09:23:35.428Z,26.57
2019-05-25T09:26:13.702Z,27.93
2019-05-25T09:29:03.540Z,23.05
2019-05-25T09:31:30.145Z,23.67
2019-05-25T09:34:07.471Z,19.02
2019-05-25T09:36:45.260Z,28.73
2019-05-25T09:39:22.967Z,27.87
2019-05-25T09:42:00.587Z,24.52
2019-05-25T09:44:37.788Z,40.65
2019-05-25T09:47:16.804Z,31.00
2019-05-25T09:49:54.052Z,39.67
2019-05-25T09:52:32.356Z,26.02
2019-05-25T09:55:12.019Z,24.52
2019-05-25T09:57:49.613Z,26.57
2019-05-25T10:00:27.498Z,23.47
2019-05-25T10:03:04.917Z,27.32
2019-05-25T10:05:42.007Z,31.62
2019-05-25T10:08:20.283Z,22.75
2019-05-25T10:10:57.636Z,25.50
2019-05-25T10:13:35.169Z,30.02
2019-05-25T10:16:12.139Z,24.80
2019-05-25T10:18:50.472Z,27.52
2019-05-25T10:21:28.239Z,23.20
2019-05-25T10:24:05.733Z,25.65
2019-05-25T10:26:44.331Z,22.42
2019-05-25T10:29:36.079Z,25.60
2019-05-25T10:32:01.726Z,25.68
2019-05-25T10:34:39.221Z,31.17
2019-05-25T10:37:16.362Z,25.85
2019-05-25T10:39:55.200Z,33.80
2019-05-25T10:42:32.592Z,30.05
2019-05-25T10:45:10.368Z,23.32
2019-05-25T10:47:48.525Z,18.02
2019-05-25T10:50:27.564Z,23.40
2019-05-25T10:53:05.145Z,29.25
2019-05-25T10:55:42.547Z,24.75
2019-05-25T10:58:21.908Z,31.82
2019-05-25T11:01:01.013Z,23.83
2019-05-25T11:03:38.391Z,20.17
2019-05-25T11:06:15.869Z,16.97
2019-05-25T11:08:53.130Z,24.35
2019-05-25T11:11:31.710Z,19.25
2019-05-25T11:14:09.016Z,21.05
2019-05-25T11:16:46.442Z,18.70
2019-05-25T11:19:25.129Z,21.75
2019-05-25T11:22:03.135Z,20.57
2019-05-25T11:24:40.670Z,26.70
2019-05-25T11:27:18.303Z,19.50
2019-05-25T11:30:08.491Z,17.35
2019-05-25T11:32:35.938Z,25.92
2019-05-25T11:35:13.569Z,21.42
2019-05-25T11:37:50.832Z,21.15
2019-05-25T11:40:28.234Z,22.45
2019-05-25T11:43:06.490Z,36.30
2019-05-25T11:45:45.455Z,24.37
2019-05-25T11:48:24.112Z,21.62
2019-05-25T11:51:00.677Z,22.95
2019-05-25T11:53:40.369Z,31.05
2019-05-25T11:56:18.057Z,23.83
2019-05-25T11:58:55.064Z,24.02
2019-05-25T12:01:33.792Z,42.85
2019-05-25T12:04:12.345Z,32.80
2019-05-25T12:06:49.554Z,27.02
2019-05-25T12:09:27.089Z,24.50
2019-05-25T12:12:04.480Z,22.82
2019-05-25T12:14:42.488Z,28.65
2019-05-25T12:17:20.142Z,25.40
2019-05-25T12:19:58.520Z,23.25
2019-05-25T12:22:36.378Z,27.58
2019-05-25T12:25:14.352Z,21.48
2019-05-25T12:27:51.632Z,26.82
2019-05-25T12:30:40.273Z,24.43
2019-05-25T12:33:09.449Z,22.37
2019-05-25T12:35:47.411Z,19.82
2019-05-25T12:38:25.431Z,20.02
2019-05-25T12:41:03.575Z,18.85
2019-05-25T12:43:41.302Z,16.48
2019-05-25T12:46:20.032Z,19.17
2019-05-25T12:48:57.755Z,21.05
2019-05-25T12:51:35.458Z,21.20
2019-05-25T12:54:13.137Z,15.93
2019-05-25T12:56:51.027Z,18.27
2019-05-25T12:59:28.462Z,20.85
2019-05-25T13:02:06.292Z,18.32
2019-05-25T13:04:44.943Z,20.32
2019-05-25T13:07:23.439Z,23.00
2019-05-25T13:10:01.115Z,18.67
2019-05-25T13:12:38.536Z,20.20
2019-05-25T13:15:15.746Z,19.37
2019-05-25T13:17:53.327Z,14.03
2019-05-25T13:20:30.521Z,24.52
2019-05-25T13:23:08.375Z,14.23
2019-05-25T13:25:45.876Z,18.20
2019-05-25T13:28:24.354Z,16.25
2019-05-25T13:31:11.250Z,24.05
2019-05-25T13:33:42.024Z,20.80
2019-05-25T13:36:21.097Z,17.02
2019-05-25T13:38:59.649Z,19.82
2019-05-25T13:41:37.204Z,19.92
2019-05-25T13:44:14.902Z,16.80
2019-05-25T13:46:52.513Z,16.32
2019-05-25T13:49:31.657Z,22.85
2019-05-25T13:52:09.132Z,21.48
2019-05-25T13:54:46.614Z,21.95
2019-05-25T13:57:23.949Z,18.77
2019-05-25T14:00:02.081Z,23.47
2019-05-25T14:02:41.014Z,24.77
2019-05-25T14:05:20.881Z,22.48
2019-05-25T14:07:59.997Z,24.27
2019-05-25T14:10:38.112Z,22.10
2019-05-25T14:13:15.507Z,24.23
2019-05-25T14:16:06.118Z,18.17
2019-05-25T14:18:32.632Z,28.38
2019-05-25T14:21:11.535Z,27.40
2019-05-25T14:23:48.777Z,27.58
2019-05-25T14:26:26.507Z,23.85
2019-05-25T14:29:03.469Z,23.40
2019-05-25T14:31:45.787Z,29.57
2019-05-25T14:34:20.697Z,23.55
2019-05-25T14:36:58.339Z,24.07
2019-05-25T14:39:37.241Z,20.32
2019-05-25T14:42:15.142Z,15.55
2019-05-25T14:44:52.146Z,17.57
2019-05-25T14:47:29.698Z,17.85
2019-05-25T14:50:07.815Z,21.33
2019-05-25T14:52:45.838Z,16.20
2019-05-25T14:55:23.127Z,23.67
2019-05-25T14:58:00.830Z,20.70
2019-05-25T15:00:39.287Z,18.42
2019-05-25T15:03:17.920Z,17.02
2019-05-25T15:05:55.203Z,17.87
2019-05-25T15:08:33.200Z,19.92
2019-05-25T15:11:11.984Z,16.45
2019-05-25T15:13:49.739Z,20.52
2019-05-25T15:16:27.287Z,19.23
2019-05-25T15:19:04.830Z,15.95
2019-05-25T15:21:44.267Z,23.35
2019-05-25T15:24:22.397Z,21.57
2019-05-25T15:26:59.500Z,17.42
2019-05-25T15:29:37.436Z,18.98
2019-05-25T15:32:19.871Z,23.42
2019-05-25T15:34:54.186Z,18.55
2019-05-25T15:37:31.845Z,24.05
2019-05-25T15:40:10.191Z,20.40
2019-05-25T15:42:49.272Z,20.60
2019-05-25T15:45:27.851Z,25.45
2019-05-25T15:48:05.008Z,13.75
2019-05-25T15:50:42.837Z,20.72
2019-05-25T15:53:20.301Z,20.05
2019-05-25T15:55:58.285Z,24.50
2019-05-25T15:58:35.303Z,18.55
2019-05-25T16:01:13.959Z,15.45
2019-05-25T16:03:53.568Z,17.40
2019-05-25T16:06:32.354Z,20.65
2019-05-25T16:09:10.162Z,19.25
2019-05-25T16:11:50.786Z,15.48
2019-05-25T16:14:29.226Z,19.37
2019-05-25T16:17:06.929Z,17.57
2019-05-25T16:19:44.274Z,13.85
2019-05-25T16:22:21.893Z,13.95
2019-05-25T16:25:00.284Z,15.10
2019-05-25T16:27:38.396Z,17.20
2019-05-25T16:30:15.960Z,17.95
2019-05-25T16:33:11.618Z,14.90
2019-05-25T16:35:32.907Z,21.40
2019-05-25T16:38:11.534Z,14.43
2019-05-25T16:40:48.872Z,12.35
2019-05-25T16:43:26.596Z,13.60
2019-05-25T16:46:05.550Z,14.65
2019-05-25T16:48:44.134Z,13.25
2019-05-25T16:51:21.921Z,11.28
2019-05-25T16:53:59.287Z,10.43
2019-05-25T16:56:37.251Z,16.17
2019-05-25T16:59:15.110Z,15.72
2019-05-25T17:01:52.311Z,17.05
2019-05-25T17:04:29.665Z,17.32
2019-05-25T17:07:07.416Z,14.15
2019-05-25T17:09:45.159Z,16.10
2019-05-25T17:12:22.445Z,13.55
2019-05-25T17:15:00.801Z,17.10
2019-05-25T17:17:40.070Z,14.70
2019-05-25T17:20:17.955Z,11.78
2019-05-25T17:22:55.303Z,13.38
2019-05-25T17:25:32.776Z,14.15
2019-05-25T17:28:10.113Z,12.73
2019-05-25T17:30:49.727Z,10.38
2019-05-25T17:33:42.569Z,16.60
2019-05-25T17:36:06.206Z,11.68
2019-05-25T17:38:44.747Z,11.65
2019-05-25T17:41:23.640Z,11.05
2019-05-25T17:44:00.941Z,13.65
2019-05-25T17:46:38.426Z,12.73
2019-05-25T17:49:16.996Z,16.10
2019-05-25T17:51:55.539Z,15.93
2019-05-25T17:54:32.852Z,12.40
2019-05-25T17:57:10.784Z,11.55
2019-05-25T17:59:47.691Z,13.58
2019-05-25T18:02:25.819Z,14.25
2019-05-25T18:05:03.171Z,11.55
2019-05-25T18:07:40.341Z,14.73
2019-05-25T18:10:17.601Z,13.20
2019-05-25T18:12:55.539Z,14.05
2019-05-25T18:15:32.833Z,14.20
2019-05-25T18:18:11.627Z,14.47
2019-05-25T18:20:50.314Z,14.33
2019-05-25T18:23:28.182Z,15.83
2019-05-25T18:26:05.268Z,15.48
2019-05-25T18:28:42.707Z,15.13
2019-05-25T18:31:20.016Z,18.98
2019-05-25T18:33:57.854Z,12.65
2019-05-25T18:36:35.380Z,14.30
2019-05-25T18:39:12.841Z,14.30
2019-05-25T18:41:50.388Z,15.70
2019-05-25T18:44:28.938Z,19.30
2019-05-25T18:47:06.627Z,17.35
2019-05-25T18:49:44.034Z,16.10
2019-05-25T18:52:26.662Z,15.78
2019-05-25T18:55:04.935Z,19.35
2019-05-25T18:57:42.613Z,19.15
2019-05-25T19:00:20.093Z,15.80
2019-05-25T19:03:14.285Z,14.38
2019-05-25T19:05:52.241Z,15.43
2019-05-25T19:08:29.716Z,15.43
2019-05-25T19:11:07.742Z,14.13
2019-05-25T19:13:45.200Z,18.77
2019-05-25T19:16:23.227Z,14.87
2019-05-25T19:19:00.512Z,13.35
2019-05-25T19:21:38.114Z,15.72
2019-05-25T19:24:19.074Z,16.32
2019-05-25T19:26:57.974Z,18.02
2019-05-25T19:29:35.460Z,21.62
2019-05-25T19:32:13.070Z,18.77
2019-05-25T19:34:59.036Z,20.90
2019-05-25T19:37:30.082Z,23.02
2019-05-25T19:40:09.048Z,20.43
2019-05-25T19:42:50.340Z,24.30
2019-05-25T19:45:27.824Z,22.98
2019-05-25T19:48:06.074Z,23.15
2019-05-25T19:50:43.457Z,22.75
2019-05-25T19:53:21.410Z,26.35
2019-05-25T19:55:59.623Z,21.80
2019-05-25T19:58:37.226Z,23.18
2019-05-25T20:01:14.774Z,21.65
2019-05-25T20:03:52.694Z,24.90
2019-05-25T20:06:29.839Z,19.82
2019-05-25T20:09:09.073Z,22.60
2019-05-25T20:11:46.518Z,22.58
2019-05-25T20:14:23.853Z,17.55
2019-05-25T20:17:01.133Z,19.45
2019-05-25T20:19:38.507Z,19.35
2019-05-25T20:22:16.131Z,20.90
2019-05-25T20:24:54.125Z,20.12
2019-05-25T20:27:32.549Z,18.32
2019-05-25T20:30:10.469Z,26.33
2019-05-25T20:32:47.709Z,18.20
2019-05-25T20:35:32.949Z,19.80
2019-05-25T20:38:03.890Z,13.65
2019-05-25T20:40:42.072Z,18.90
2019-05-25T20:43:19.384Z,22.70
2019-05-25T20:45:56.860Z,21.00
2019-05-25T20:48:34.219Z,20.88
2019-05-25T20:51:12.421Z,19.92
2019-05-25T20:53:50.144Z,21.05
2019-05-25T20:56:27.481Z,20.52
2019-05-25T20:59:05.886Z,20.32
2019-05-25T21:01:45.374Z,16.55
2019-05-25T21:04:22.847Z,18.07
2019-05-25T21:07:00.367Z,19.92
2019-05-25T21:09:37.611Z,22.13
2019-05-25T21:12:15.881Z,22.27
2019-05-25T21:14:53.358Z,26.20
2019-05-25T21:17:30.861Z,21.95
2019-05-25T21:20:08.249Z,21.30
2019-05-25T21:22:51.079Z,21.97
2019-05-25T21:28:04.388Z,20.55
2019-05-25T21:30:41.897Z,27.48
2019-05-25T21:33:20.064Z,24.75
2019-05-25T21:36:07.650Z,23.62
2019-05-25T21:38:37.484Z,23.77
2019-05-25T21:41:15.037Z,21.17
2019-05-25T21:43:53.367Z,21.35
2019-05-25T21:46:30.718Z,18.95
2019-05-25T21:49:08.390Z,23.87
2019-05-25T21:51:45.786Z,25.35
2019-05-25T21:54:23.520Z,21.80
2019-05-25T21:57:00.866Z,22.02
2019-05-25T21:59:38.072Z,20.60
2019-05-25T22:02:16.225Z,29.30
2019-05-25T22:04:54.892Z,22.80
2019-05-25T22:07:32.450Z,24.37
2019-05-25T22:10:10.458Z,23.65
2019-05-25T22:12:48.047Z,24.12
2019-05-25T22:15:25.816Z,25.60
2019-05-25T22:18:06.179Z,24.55
2019-05-25T22:20:43.650Z,25.30
2019-05-25T22:23:20.562Z,22.95
2019-05-25T22:25:59.161Z,21.85
2019-05-25T22:28:44.780Z,25.30
2019-05-25T22:31:16.674Z,24.90
2019-05-25T22:33:54.983Z,25.32
2019-05-25T22:36:40.349Z,23.65
2019-05-25T22:39:12.215Z,24.57
2019-05-25T22:41:49.211Z,19.92
2019-05-25T22:44:26.928Z,28.42
2019-05-25T22:47:06.446Z,19.12
2019-05-25T22:49:43.183Z,24.50
2019-05-25T22:52:20.180Z,21.33
2019-05-25T22:54:57.988Z,23.05
2019-05-25T22:57:35.660Z,21.48
2019-05-25T23:00:14.280Z,22.25
2019-05-25T23:02:52.132Z,21.07
2019-05-25T23:05:30.408Z,23.60
2019-05-25T23:08:08.310Z,24.27
2019-05-25T23:10:45.573Z,18.80
2019-05-25T23:13:22.842Z,21.33
2019-05-25T23:16:00.097Z,16.37
2019-05-25T23:18:38.652Z,15.88
2019-05-25T23:21:16.252Z,18.40
2019-05-25T23:23:53.820Z,14.55
2019-05-25T23:26:31.329Z,20.43
2019-05-25T23:29:09.738Z,14.68
2019-05-25T23:31:46.800Z,16.97
2019-05-25T23:34:24.582Z,15.65
2019-05-25T23:37:14.080Z,16.05
2019-05-25T23:39:41.377Z,26.37
2019-05-25T23:42:18.342Z,15.65
2019-05-25T23:44:55.559Z,14.47
2019-05-25T23:47:33.240Z,14.13
2019-05-25T23:50:13.326Z,19.35
2019-05-25T23:52:50.675Z,19.35
2019-05-25T23:55:29.439Z,13.72
2019-05-25T23:58:06.680Z,19.62
